Arctic Taglu — CY8968 — position and weather

sailwx.info

Track history (hours):
 
Tides and Currents Weather Stations Pressure Air Temp Water Temp Dewpoint Dewpoint Depression Visibility Wind Speed Wind Dir Waves Ship Positions

Arctic Taglu

Last reported at 2016-Jul-28 13:33 UTC. Time now 2016-Jul-28 14:32 UTC.
Position N 48°54' W 123°17'.

Length 33 m; draft 6 m.

Type: Tug. MMSI: 316003483.

Date/timePositionNaut miles runAvg speedWind from/ knotsBaromVisibWave heightAir tempDewpointWater temp
2016-Jul-28 13:33N 48°54' W 123°17'7 7.2
2016-Jul-28 12:32N 48°47' W 123°21'1 0.2
2016-Jul-28 09:15N 48°48' W 123°21'7 9.8
2016-Jul-28 08:33N 48°54' W 123°18'1110.5
2016-Jul-28 07:30N 49°05' W 123°20'10 8.9
2016-Jul-28 06:24N 49°07' W 123°06'3 2.3
2016-Jul-28 05:09N 49°09' W 123°02'0 0.1
2016-Jul-28 04:30N 49°09' W 123°02'0 0.0
2016-Jul-28 03:30N 49°09' W 123°02'0 0.0
2016-Jul-28 02:31N 49°09' W 123°02'0 0.0
2016-Jul-28 01:33N 49°09' W 123°02'0 0.0
2016-Jul-28 00:17N 49°09' W 123°02'0 0.0
2016-Jul-27 23:30N 49°09' W 123°02'0 0.0
2016-Jul-27 22:20N 49°09' W 123°02'0 0.0
2016-Jul-27 21:33N 49°09' W 123°02'0 0.0
2016-Jul-27 20:33N 49°09' W 123°02'0 0.0
2016-Jul-27 19:33N 49°09' W 123°02'0 0.0
2016-Jul-27 18:33N 49°09' W 123°02'0 0.0
2016-Jul-27 17:33N 49°09' W 123°02'0 0.0
2016-Jul-27 16:33N 49°09' W 123°02'6 6.4
2016-Jul-27 15:33N 49°07' W 123°12'7 6.5
2016-Jul-27 14:33N 49°04' W 123°20'8 8.4
2016-Jul-27 13:33N 48°56' W 123°16'8 8.0
2016-Jul-27 12:33N 48°48' W 123°21'7 7.2
2016-Jul-27 11:33N 48°41' W 123°24'0 0.0
2016-Jul-27 10:32N 48°41' W 123°24'5 4.9
2016-Jul-27 09:33N 48°46' W 123°21'1010.2
2016-Jul-27 08:33N 48°56' W 123°18'1010.0
2016-Jul-27 07:33N 49°06' W 123°20'9 9.1
2016-Jul-27 06:33N 49°07' W 123°06'3 2.9
2016-Jul-27 05:33N 49°09' W 123°02'0 0.0
2016-Jul-27 04:33N 49°09' W 123°02'6 6.4
2016-Jul-27 03:33N 49°07' W 123°12'7 6.6
2016-Jul-27 02:33N 49°03' W 123°19'10 9.8
2016-Jul-27 01:33N 48°53' W 123°18'9 8.4
2016-Jul-27 00:33N 48°45' W 123°22'4 3.7
2016-Jul-26 23:32N 48°41' W 123°24'0 0.0
2016-Jul-26 22:33N 48°41' W 123°24'9 9.0
2016-Jul-26 21:33N 48°50' W 123°21'9 9.5
2016-Jul-26 20:33N 48°59' W 123°19'9 8.8
2016-Jul-26 19:33N 49°08' W 123°15'8 8.2
2016-Jul-26 18:33N 49°09' W 123°02'0 0.0
2016-Jul-26 17:33N 49°09' W 123°02'0 0.0
2016-Jul-26 16:33N 49°09' W 123°02'4 4.5
2016-Jul-26 15:33N 49°06' W 123°08'7 7.3
2016-Jul-26 14:33N 49°06' W 123°19'9 9.0
2016-Jul-26 13:33N 48°57' W 123°18'9 8.6
2016-Jul-26 12:33N 48°48' W 123°21'7 7.3
2016-Jul-26 11:33N 48°41' W 123°24'0 0.0
2016-Jul-26 10:33N 48°41' W 123°24'4 3.7
2016-Jul-26 09:33N 48°45' W 123°23'1010.0
2016-Jul-26 08:33N 48°54' W 123°18'1110.7
2016-Jul-26 07:33N 49°05' W 123°21'9 9.1
2016-Jul-26 06:33N 49°07' W 123°07'4 3.7
2016-Jul-26 05:33N 49°09' W 123°02'0 0.4
2016-Jul-26 04:33N 49°08' W 123°03'0 0.0
2016-Jul-26 03:33N 49°08' W 123°03'0 0.0
2016-Jul-26 02:33N 49°08' W 123°03'  
2016-Jul-23 18:27N 49°08' W 123°03'0 0.0
2016-Jul-23 17:33N 49°08' W 123°03'0 0.5
2016-Jul-23 16:33N 49°09' W 123°02'4 4.1
2016-Jul-23 15:33N 49°07' W 123°07'6 6.1
2016-Jul-23 14:33N 49°07' W 123°17'9 8.7
2016-Jul-23 13:33N 48°58' W 123°17'9 8.8
2016-Jul-23 12:33N 48°50' W 123°20'9 8.4
2016-Jul-23 11:32N 48°42' W 123°25'0 0.3
2016-Jul-23 10:32N 48°41' W 123°24'2 2.5
2016-Jul-23 09:33N 48°43' W 123°21'9 9.3
2016-Jul-23 08:33N 48°52' W 123°19'1010.2
2016-Jul-23 07:33N 49°02' W 123°20'8 8.1
2016-Jul-23 06:33N 49°07' W 123°10'6 2.8
2016-Jul-23 04:33N 49°09' W 123°02'0 0.0
2016-Jul-23 03:33N 49°09' W 123°02'0 0.0
2016-Jul-23 02:33N 49°09' W 123°02'0 0.0
2016-Jul-23 01:33N 49°09' W 123°02'0 0.0
2016-Jul-23 00:33N 49°09' W 123°02'0 0.0
2016-Jul-22 23:33N 49°09' W 123°02'0 0.0
2016-Jul-22 22:33N 49°09' W 123°02'0 0.0
2016-Jul-22 21:33N 49°09' W 123°02'0 0.0
2016-Jul-22 20:33N 49°09' W 123°02'0 0.0
2016-Jul-22 19:33N 49°09' W 123°02'0 0.0
2016-Jul-22 18:33N 49°09' W 123°02'0 0.0
2016-Jul-22 17:33N 49°09' W 123°02'2 1.9
2016-Jul-22 16:33N 49°07' W 123°04'5 5.0
2016-Jul-22 15:33N 49°07' W 123°12'5 5.1
2016-Jul-22 14:33N 49°06' W 123°19'9 9.2
2016-Jul-22 13:33N 48°57' W 123°17'8 8.1
2016-Jul-22 12:33N 48°49' W 123°20'8 7.8
2016-Jul-22 11:33N 48°41' W 123°24'0 0.0
2016-Jul-22 10:27N 48°41' W 123°24'4 4.7
2016-Jul-22 09:33N 48°45' W 123°21'8 8.6
2016-Jul-22 08:33N 48°53' W 123°18'1010.2
2016-Jul-22 07:33N 49°03' W 123°22'14 7.1
2016-Jul-22 05:33N 49°09' W 123°02'0 0.0
2016-Jul-22 04:33N 49°09' W 123°02'0 0.0
2016-Jul-22 03:33N 49°09' W 123°02'0 0.0
2016-Jul-22 02:33N 49°09' W 123°02'0 0.0
2016-Jul-22 01:33N 49°09' W 123°02'0 0.0
2016-Jul-22 00:33N 49°09' W 123°02'0 0.0
2016-Jul-21 23:33N 49°09' W 123°02'0 0.0
2016-Jul-21 22:33N 49°09' W 123°02'0 0.0
2016-Jul-21 21:34N 49°09' W 123°02'0 0.0
2016-Jul-21 20:33N 49°09' W 123°02'0 0.0
2016-Jul-21 19:33N 49°09' W 123°02'0 0.0
2016-Jul-21 18:32N 49°09' W 123°02'0 0.0
2016-Jul-21 17:28N 49°09' W 123°02'4 3.3
2016-Jul-21 16:15N 49°07' W 123°08'3 4.1
2016-Jul-21 15:28N 49°07' W 123°12'5 5.6
2016-Jul-21 14:30N 49°04' W 123°19'10 9.6
2016-Jul-21 13:26N 48°54' W 123°18'9 7.9
2016-Jul-21 12:16N 48°45' W 123°22'1 0.4
2016-Jul-21 09:33N 48°45' W 123°21'8 8.2
2016-Jul-21 08:33N 48°53' W 123°18'10 9.9
2016-Jul-21 07:31N 49°03' W 123°20'9 8.9
2016-Jul-21 06:33N 49°07' W 123°08'4 2.2
2016-Jul-21 04:32N 49°09' W 123°02'0 0.0
2016-Jul-21 03:33N 49°09' W 123°02'0 0.0
2016-Jul-21 02:33N 49°09' W 123°02'0 0.0
2016-Jul-21 01:34N 49°09' W 123°02'0 0.0
2016-Jul-21 00:33N 49°09' W 123°02'0 0.0
2016-Jul-20 23:33N 49°09' W 123°02'0 0.0
2016-Jul-20 22:33N 49°09' W 123°02'0 0.0
2016-Jul-20 21:33N 49°09' W 123°02'0 0.0
2016-Jul-20 20:33N 49°09' W 123°02'0 0.0
2016-Jul-20 19:33N 49°09' W 123°02'0 0.0
2016-Jul-20 18:34N 49°09' W 123°02'0 0.0
2016-Jul-20 17:33N 49°09' W 123°02'0 0.4
2016-Jul-20 16:33N 49°08' W 123°03'6 6.0
2016-Jul-20 15:33N 49°07' W 123°12'6 5.8
2016-Jul-20 14:34N 49°04' W 123°19'10 9.8
2016-Jul-20 13:33N 48°54' W 123°17'7 7.0
2016-Jul-20 12:34N 48°47' W 123°21'7 6.5
2016-Jul-20 11:33N 48°41' W 123°24'0 0.0
2016-Jul-20 10:34N 48°41' W 123°24'6 6.2
2016-Jul-20 09:33N 48°47' W 123°21'7 7.2
2016-Jul-20 08:33N 48°54' W 123°18'9 9.5
2016-Jul-20 07:33N 49°03' W 123°21'10 9.7
2016-Jul-20 06:34N 49°07' W 123°07'4 3.9
2016-Jul-20 05:33N 49°09' W 123°02'4 4.4
2016-Jul-20 04:33N 49°06' W 123°08'8 7.5
2016-Jul-20 03:34N 49°05' W 123°19'9 8.6
2016-Jul-20 02:33N 48°56' W 123°18'8 7.7
2016-Jul-20 01:33N 48°49' W 123°21'8 7.7
2016-Jul-20 00:32N 48°41' W 123°24'0 0.1
2016-Jul-19 23:33N 48°41' W 123°24'5 5.2
2016-Jul-19 22:33N 48°46' W 123°21'6 5.9
2016-Jul-19 21:33N 48°52' W 123°19'9 8.6
2016-Jul-19 20:34N 49°00' W 123°20'9 8.7
2016-Jul-19 19:34N 49°08' W 123°12'7 6.7
2016-Jul-19 18:33N 49°09' W 123°02'0 0.0
2016-Jul-19 17:34N 49°09' W 123°02'1 1.2
2016-Jul-19 16:33N 49°08' W 123°04'6 5.7
2016-Jul-19 15:33N 49°07' W 123°12'6 5.8
2016-Jul-19 14:34N 49°04' W 123°19'10 9.5
2016-Jul-19 13:34N 48°54' W 123°17'7 6.7
2016-Jul-19 12:33N 48°48' W 123°21'7 6.9
2016-Jul-19 11:34N 48°41' W 123°24'0 0.0
2016-Jul-19 10:34N 48°41' W 123°24'4 3.6
2016-Jul-19 09:33N 48°44' W 123°21'8 8.4
2016-Jul-19 08:34N 48°52' W 123°18'10 9.8
2016-Jul-19 07:33N 49°02' W 123°20'13 4.4
2016-Jul-19 04:34N 49°09' W 123°02'0 0.5
2016-Jul-19 03:33N 49°08' W 123°03'  
Track history (hours):
 
Tides and Currents Weather Stations Pressure Air Temp Water Temp Dewpoint Dewpoint Depression Visibility Wind Speed Wind Dir Waves Ship Positions

Arctic Taglu

Last reported at 2016-Jul-28 13:33 UTC. Time now 2016-Jul-28 14:32 UTC.
Position N 48°54' W 123°17'.

Length 33 m; draft 6 m.

Type: Tug. MMSI: 316003483.

Date/timePositionNaut miles runAvg speedWind from/ knotsBaromVisibWave heightAir tempDewpointWater temp
2016-Jul-28 13:33N 48°54' W 123°17'7 7.2
2016-Jul-28 12:32N 48°47' W 123°21'1 0.2
2016-Jul-28 09:15N 48°48' W 123°21'7 9.8
2016-Jul-28 08:33N 48°54' W 123°18'1110.5
2016-Jul-28 07:30N 49°05' W 123°20'10 8.9
2016-Jul-28 06:24N 49°07' W 123°06'3 2.3
2016-Jul-28 05:09N 49°09' W 123°02'0 0.1
2016-Jul-28 04:30N 49°09' W 123°02'0 0.0
2016-Jul-28 03:30N 49°09' W 123°02'0 0.0
2016-Jul-28 02:31N 49°09' W 123°02'0 0.0
2016-Jul-28 01:33N 49°09' W 123°02'0 0.0
2016-Jul-28 00:17N 49°09' W 123°02'0 0.0
2016-Jul-27 23:30N 49°09' W 123°02'0 0.0
2016-Jul-27 22:20N 49°09' W 123°02'0 0.0
2016-Jul-27 21:33N 49°09' W 123°02'0 0.0
2016-Jul-27 20:33N 49°09' W 123°02'0 0.0
2016-Jul-27 19:33N 49°09' W 123°02'0 0.0
2016-Jul-27 18:33N 49°09' W 123°02'0 0.0
2016-Jul-27 17:33N 49°09' W 123°02'0 0.0
2016-Jul-27 16:33N 49°09' W 123°02'6 6.4
2016-Jul-27 15:33N 49°07' W 123°12'7 6.5
2016-Jul-27 14:33N 49°04' W 123°20'8 8.4
2016-Jul-27 13:33N 48°56' W 123°16'8 8.0
2016-Jul-27 12:33N 48°48' W 123°21'7 7.2
2016-Jul-27 11:33N 48°41' W 123°24'0 0.0
2016-Jul-27 10:32N 48°41' W 123°24'5 4.9
2016-Jul-27 09:33N 48°46' W 123°21'1010.2
2016-Jul-27 08:33N 48°56' W 123°18'1010.0
2016-Jul-27 07:33N 49°06' W 123°20'9 9.1
2016-Jul-27 06:33N 49°07' W 123°06'3 2.9
2016-Jul-27 05:33N 49°09' W 123°02'0 0.0
2016-Jul-27 04:33N 49°09' W 123°02'6 6.4
2016-Jul-27 03:33N 49°07' W 123°12'7 6.6
2016-Jul-27 02:33N 49°03' W 123°19'10 9.8
2016-Jul-27 01:33N 48°53' W 123°18'9 8.4
2016-Jul-27 00:33N 48°45' W 123°22'4 3.7
2016-Jul-26 23:32N 48°41' W 123°24'0 0.0
2016-Jul-26 22:33N 48°41' W 123°24'9 9.0
2016-Jul-26 21:33N 48°50' W 123°21'9 9.5
2016-Jul-26 20:33N 48°59' W 123°19'9 8.8
2016-Jul-26 19:33N 49°08' W 123°15'8 8.2
2016-Jul-26 18:33N 49°09' W 123°02'0 0.0
2016-Jul-26 17:33N 49°09' W 123°02'0 0.0
2016-Jul-26 16:33N 49°09' W 123°02'4 4.5
2016-Jul-26 15:33N 49°06' W 123°08'7 7.3
2016-Jul-26 14:33N 49°06' W 123°19'9 9.0
2016-Jul-26 13:33N 48°57' W 123°18'9 8.6
2016-Jul-26 12:33N 48°48' W 123°21'7 7.3
2016-Jul-26 11:33N 48°41' W 123°24'0 0.0
2016-Jul-26 10:33N 48°41' W 123°24'4 3.7
2016-Jul-26 09:33N 48°45' W 123°23'1010.0
2016-Jul-26 08:33N 48°54' W 123°18'1110.7
2016-Jul-26 07:33N 49°05' W 123°21'9 9.1
2016-Jul-26 06:33N 49°07' W 123°07'4 3.7
2016-Jul-26 05:33N 49°09' W 123°02'0 0.4
2016-Jul-26 04:33N 49°08' W 123°03'0 0.0
2016-Jul-26 03:33N 49°08' W 123°03'0 0.0
2016-Jul-26 02:33N 49°08' W 123°03'  
2016-Jul-23 18:27N 49°08' W 123°03'0 0.0
2016-Jul-23 17:33N 49°08' W 123°03'0 0.5
2016-Jul-23 16:33N 49°09' W 123°02'4 4.1
2016-Jul-23 15:33N 49°07' W 123°07'6 6.1
2016-Jul-23 14:33N 49°07' W 123°17'9 8.7
2016-Jul-23 13:33N 48°58' W 123°17'9 8.8
2016-Jul-23 12:33N 48°50' W 123°20'9 8.4
2016-Jul-23 11:32N 48°42' W 123°25'0 0.3
2016-Jul-23 10:32N 48°41' W 123°24'2 2.5
2016-Jul-23 09:33N 48°43' W 123°21'9 9.3
2016-Jul-23 08:33N 48°52' W 123°19'1010.2
2016-Jul-23 07:33N 49°02' W 123°20'8 8.1
2016-Jul-23 06:33N 49°07' W 123°10'6 2.8
2016-Jul-23 04:33N 49°09' W 123°02'0 0.0
2016-Jul-23 03:33N 49°09' W 123°02'0 0.0
2016-Jul-23 02:33N 49°09' W 123°02'0 0.0
2016-Jul-23 01:33N 49°09' W 123°02'0 0.0
2016-Jul-23 00:33N 49°09' W 123°02'0 0.0
2016-Jul-22 23:33N 49°09' W 123°02'0 0.0
2016-Jul-22 22:33N 49°09' W 123°02'0 0.0
2016-Jul-22 21:33N 49°09' W 123°02'0 0.0
2016-Jul-22 20:33N 49°09' W 123°02'0 0.0
2016-Jul-22 19:33N 49°09' W 123°02'0 0.0
2016-Jul-22 18:33N 49°09' W 123°02'0 0.0
2016-Jul-22 17:33N 49°09' W 123°02'2 1.9
2016-Jul-22 16:33N 49°07' W 123°04'5 5.0
2016-Jul-22 15:33N 49°07' W 123°12'5 5.1
2016-Jul-22 14:33N 49°06' W 123°19'9 9.2
2016-Jul-22 13:33N 48°57' W 123°17'8 8.1
2016-Jul-22 12:33N 48°49' W 123°20'8 7.8
2016-Jul-22 11:33N 48°41' W 123°24'0 0.0
2016-Jul-22 10:27N 48°41' W 123°24'4 4.7
2016-Jul-22 09:33N 48°45' W 123°21'8 8.6
2016-Jul-22 08:33N 48°53' W 123°18'1010.2
2016-Jul-22 07:33N 49°03' W 123°22'14 7.1
2016-Jul-22 05:33N 49°09' W 123°02'0 0.0
2016-Jul-22 04:33N 49°09' W 123°02'0 0.0
2016-Jul-22 03:33N 49°09' W 123°02'0 0.0
2016-Jul-22 02:33N 49°09' W 123°02'0 0.0
2016-Jul-22 01:33N 49°09' W 123°02'0 0.0
2016-Jul-22 00:33N 49°09' W 123°02'0 0.0
2016-Jul-21 23:33N 49°09' W 123°02'0 0.0
2016-Jul-21 22:33N 49°09' W 123°02'0 0.0
2016-Jul-21 21:34N 49°09' W 123°02'0 0.0
2016-Jul-21 20:33N 49°09' W 123°02'0 0.0
2016-Jul-21 19:33N 49°09' W 123°02'0 0.0
2016-Jul-21 18:32N 49°09' W 123°02'0 0.0
2016-Jul-21 17:28N 49°09' W 123°02'4 3.3
2016-Jul-21 16:15N 49°07' W 123°08'3 4.1
2016-Jul-21 15:28N 49°07' W 123°12'5 5.6
2016-Jul-21 14:30N 49°04' W 123°19'10 9.6
2016-Jul-21 13:26N 48°54' W 123°18'9 7.9
2016-Jul-21 12:16N 48°45' W 123°22'1 0.4
2016-Jul-21 09:33N 48°45' W 123°21'8 8.2
2016-Jul-21 08:33N 48°53' W 123°18'10 9.9
2016-Jul-21 07:31N 49°03' W 123°20'9 8.9
2016-Jul-21 06:33N 49°07' W 123°08'4 2.2
2016-Jul-21 04:32N 49°09' W 123°02'0 0.0
2016-Jul-21 03:33N 49°09' W 123°02'0 0.0
2016-Jul-21 02:33N 49°09' W 123°02'0 0.0
2016-Jul-21 01:34N 49°09' W 123°02'0 0.0
2016-Jul-21 00:33N 49°09' W 123°02'0 0.0
2016-Jul-20 23:33N 49°09' W 123°02'0 0.0
2016-Jul-20 22:33N 49°09' W 123°02'0 0.0
2016-Jul-20 21:33N 49°09' W 123°02'0 0.0
2016-Jul-20 20:33N 49°09' W 123°02'0 0.0
2016-Jul-20 19:33N 49°09' W 123°02'0 0.0
2016-Jul-20 18:34N 49°09' W 123°02'0 0.0
2016-Jul-20 17:33N 49°09' W 123°02'0 0.4
2016-Jul-20 16:33N 49°08' W 123°03'6 6.0
2016-Jul-20 15:33N 49°07' W 123°12'6 5.8
2016-Jul-20 14:34N 49°04' W 123°19'10 9.8
2016-Jul-20 13:33N 48°54' W 123°17'7 7.0
2016-Jul-20 12:34N 48°47' W 123°21'7 6.5
2016-Jul-20 11:33N 48°41' W 123°24'0 0.0
2016-Jul-20 10:34N 48°41' W 123°24'6 6.2
2016-Jul-20 09:33N 48°47' W 123°21'7 7.2
2016-Jul-20 08:33N 48°54' W 123°18'9 9.5
2016-Jul-20 07:33N 49°03' W 123°21'10 9.7
2016-Jul-20 06:34N 49°07' W 123°07'4 3.9
2016-Jul-20 05:33N 49°09' W 123°02'4 4.4
2016-Jul-20 04:33N 49°06' W 123°08'8 7.5
2016-Jul-20 03:34N 49°05' W 123°19'9 8.6
2016-Jul-20 02:33N 48°56' W 123°18'8 7.7
2016-Jul-20 01:33N 48°49' W 123°21'8 7.7
2016-Jul-20 00:32N 48°41' W 123°24'0 0.1
2016-Jul-19 23:33N 48°41' W 123°24'5 5.2
2016-Jul-19 22:33N 48°46' W 123°21'6 5.9
2016-Jul-19 21:33N 48°52' W 123°19'9 8.6
2016-Jul-19 20:34N 49°00' W 123°20'9 8.7
2016-Jul-19 19:34N 49°08' W 123°12'7 6.7
2016-Jul-19 18:33N 49°09' W 123°02'0 0.0
2016-Jul-19 17:34N 49°09' W 123°02'1 1.2
2016-Jul-19 16:33N 49°08' W 123°04'6 5.7
2016-Jul-19 15:33N 49°07' W 123°12'6 5.8
2016-Jul-19 14:34N 49°04' W 123°19'10 9.5
2016-Jul-19 13:34N 48°54' W 123°17'7 6.7
2016-Jul-19 12:33N 48°48' W 123°21'7 6.9
2016-Jul-19 11:34N 48°41' W 123°24'0 0.0
2016-Jul-19 10:34N 48°41' W 123°24'4 3.6
2016-Jul-19 09:33N 48°44' W 123°21'8 8.4
2016-Jul-19 08:34N 48°52' W 123°18'10 9.8
2016-Jul-19 07:33N 49°02' W 123°20'13 4.4
2016-Jul-19 04:34N 49°09' W 123°02'0 0.5
2016-Jul-19 03:33N 49°08' W 123°03'  

Dump ship's entire track history